LNG Imo — ZCDT6 — position and weather

sailwx.info

Track history (hours):
 
Tides and Currents Weather Stations Pressure Air Temp Water Temp Dewpoint Dewpoint Depression Visibility Wind Speed Wind Dir Waves Ship Positions

LNG Imo

Last reported at 2015-Aug-13 06:26 UTC. Time now 2015-Aug-30 20:02 UTC.
Position N 36°23' W 002°37'.
Warning: this ship's position is 17 days out of date.

Length 288 m; draft 9.2 m.

Type: Ship (hazmat cat D). MMSI: 310565000.

Date/timePositionNaut miles runAvg speedWind from/ knotsBaromVisibWave heightAir tempDewpointWater temp
2015-Aug-13 06:26N 36°23' W 002°37'1011.0
2015-Aug-13 05:33N 36°24' W 002°25'1110.8
2015-Aug-13 04:34N 36°26' W 002°12'1111.1
2015-Aug-13 03:33N 36°33' W 002°01'1111.0
2015-Aug-13 02:32N 36°40' W 001°51'1111.0
2015-Aug-13 01:33N 36°48' W 001°41'1111.5
2015-Aug-13 00:33N 36°57' W 001°32'1010.3
2015-Aug-12 23:34N 37°05' W 001°24'19 9.3
2015-Aug-12 21:29N 37°21' W 001°11'9 9.1
2015-Aug-12 20:29N 37°29' W 001°05'7 0.2
2015-Aug-11 05:12N 37°34' W 000°59'12 5.6
2015-Aug-11 03:08N 37°24' W 001°06'31 8.2
2015-Aug-10 23:19N 36°57' W 001°26'1 1.6
2015-Aug-10 22:31N 36°56' W 001°25'28213.3
2015-Aug-10 01:21N 35°23' W 006°54'1514.6
2015-Aug-10 00:18N 35°11' W 007°06'1613.8
2015-Aug-09 23:08N 34°59' W 007°20'813.8
2015-Aug-09 22:33N 34°53' W 007°26'10913.6
2015-Aug-09 14:33N 33°33' W 008°55'1313.4
2015-Aug-09 13:33N 33°23' W 009°06'1313.4
2015-Aug-09 12:33N 33°13' W 009°17'8213.6
2015-Aug-09 06:33N 32°12' W 010°22'1713.3
2015-Aug-09 05:15N 31°59' W 010°36'2213.2
2015-Aug-09 03:33N 31°41' W 010°50'1313.3
2015-Aug-09 02:33N 31°30' W 010°59'1312.9
2015-Aug-09 01:33N 31°19' W 011°07'1413.0
2015-Aug-09 00:30N 31°07' W 011°16'  
Track history (hours):
 
Tides and Currents Weather Stations Pressure Air Temp Water Temp Dewpoint Dewpoint Depression Visibility Wind Speed Wind Dir Waves Ship Positions

LNG Imo

Last reported at 2015-Aug-13 06:26 UTC. Time now 2015-Aug-30 20:02 UTC.
Position N 36°23' W 002°37'.
Warning: this ship's position is 17 days out of date.

Length 288 m; draft 9.2 m.

Type: Ship (hazmat cat D). MMSI: 310565000.

Date/timePositionNaut miles runAvg speedWind from/ knotsBaromVisibWave heightAir tempDewpointWater temp
2015-Aug-13 06:26N 36°23' W 002°37'1011.0
2015-Aug-13 05:33N 36°24' W 002°25'1110.8
2015-Aug-13 04:34N 36°26' W 002°12'1111.1
2015-Aug-13 03:33N 36°33' W 002°01'1111.0
2015-Aug-13 02:32N 36°40' W 001°51'1111.0
2015-Aug-13 01:33N 36°48' W 001°41'1111.5
2015-Aug-13 00:33N 36°57' W 001°32'1010.3
2015-Aug-12 23:34N 37°05' W 001°24'19 9.3
2015-Aug-12 21:29N 37°21' W 001°11'9 9.1
2015-Aug-12 20:29N 37°29' W 001°05'7 0.2
2015-Aug-11 05:12N 37°34' W 000°59'12 5.6
2015-Aug-11 03:08N 37°24' W 001°06'31 8.2
2015-Aug-10 23:19N 36°57' W 001°26'1 1.6
2015-Aug-10 22:31N 36°56' W 001°25'28213.3
2015-Aug-10 01:21N 35°23' W 006°54'1514.6
2015-Aug-10 00:18N 35°11' W 007°06'1613.8
2015-Aug-09 23:08N 34°59' W 007°20'813.8
2015-Aug-09 22:33N 34°53' W 007°26'10913.6
2015-Aug-09 14:33N 33°33' W 008°55'1313.4
2015-Aug-09 13:33N 33°23' W 009°06'1313.4
2015-Aug-09 12:33N 33°13' W 009°17'8213.6
2015-Aug-09 06:33N 32°12' W 010°22'1713.3
2015-Aug-09 05:15N 31°59' W 010°36'2213.2
2015-Aug-09 03:33N 31°41' W 010°50'1313.3
2015-Aug-09 02:33N 31°30' W 010°59'1312.9
2015-Aug-09 01:33N 31°19' W 011°07'1413.0
2015-Aug-09 00:30N 31°07' W 011°16'  

Dump ship's entire track history